Map

Track Data

SID SEASON NUMBER BASIN SUBBASIN NAME ISO_TIME NATURE LAT LON WMO_WIND WMO_PRES WMO_AGENCY TRACK_TYPE DIST2LAND LANDFALL IFLAG USA_AGENCY USA_ATCF_ID USA_LAT USA_LON USA_RECORD USA_STATUS USA_WIND USA_PRES USA_SSHS USA_R34_NE USA_R34_SE USA_R34_SW USA_R34_NW USA_R50_NE USA_R50_SE USA_R50_SW USA_R50_NW USA_R64_NE USA_R64_SE USA_R64_SW USA_R64_NW USA_POCI USA_ROCI USA_RMW USA_EYE TOKYO_LAT TOKYO_LON TOKYO_GRADE TOKYO_WIND TOKYO_PRES TOKYO_R50_DIR TOKYO_R50_LONG TOKYO_R50_SHORT TOKYO_R30_DIR TOKYO_R30_LONG TOKYO_R30_SHORT TOKYO_LAND CMA_LAT CMA_LON CMA_CAT CMA_WIND CMA_PRES HKO_LAT HKO_LON HKO_CAT HKO_WIND HKO_PRES NEWDELHI_LAT NEWDELHI_LON NEWDELHI_GRADE NEWDELHI_WIND NEWDELHI_PRES NEWDELHI_CI NEWDELHI_DP NEWDELHI_POCI REUNION_LAT REUNION_LON REUNION_TYPE REUNION_WIND REUNION_PRES REUNION_TNUM REUNION_CI REUNION_RMW REUNION_R34_NE REUNION_R34_SE REUNION_R34_SW REUNION_R34_NW REUNION_R50_NE REUNION_R50_SE REUNION_R50_SW REUNION_R50_NW REUNION_R64_NE REUNION_R64_SE REUNION_R64_SW REUNION_R64_NW BOM_LAT BOM_LON BOM_TYPE BOM_WIND BOM_PRES BOM_TNUM BOM_CI BOM_RMW BOM_R34_NE BOM_R34_SE BOM_R34_SW BOM_R34_NW BOM_R50_NE BOM_R50_SE BOM_R50_SW BOM_R50_NW BOM_R64_NE BOM_R64_SE BOM_R64_SW BOM_R64_NW BOM_ROCI BOM_POCI BOM_EYE BOM_POS_METHOD BOM_PRES_METHOD NADI_LAT NADI_LON NADI_CAT NADI_WIND NADI_PRES WELLINGTON_LAT WELLINGTON_LON WELLINGTON_WIND WELLINGTON_PRES DS824_LAT DS824_LON DS824_STAGE DS824_WIND DS824_PRES TD9636_LAT TD9636_LON TD9636_STAGE TD9636_WIND TD9636_PRES TD9635_LAT TD9635_LON TD9635_WIND TD9635_PRES TD9635_ROCI NEUMANN_LAT NEUMANN_LON NEUMANN_CLASS NEUMANN_WIND NEUMANN_PRES MLC_LAT MLC_LON MLC_CLASS MLC_WIND MLC_PRES USA_GUST BOM_GUST BOM_GUST_PER REUNION_GUST REUNION_GUST_PER USA_SEAHGT USA_SEARAD_NE USA_SEARAD_SE USA_SEARAD_SW USA_SEARAD_NW STORM_SPEED STORM_DIR
1938047S16131 1938 17 SI WA NOT_NAMED 1938-02-16 01:00:00 NR -16.0000 131.000 998 bom main 0 0 ______O_______ -1 -16.0000 131.000 998 6 221
1938047S16131 1938 17 SI WA NOT_NAMED 1938-02-16 03:00:00 NR -16.1613 130.857 main 0 0 ______P_______ -1 -16.1613 130.857 6 220
1938047S16131 1938 17 SI WA NOT_NAMED 1938-02-16 06:00:00 NR -16.4037 130.647 main 0 0 ______P_______ -1 -16.4037 130.647 6 219
1938047S16131 1938 17 SI WA NOT_NAMED 1938-02-16 09:00:00 NR -16.6472 130.450 main 0 0 ______P_______ -1 -16.6472 130.450 6 216
1938047S16131 1938 17 SI WA NOT_NAMED 1938-02-16 12:00:00 NR -16.8927 130.277 main 0 0 ______P_______ -1 -16.8927 130.277 6 211
1938047S16131 1938 17 SI WA NOT_NAMED 1938-02-16 15:00:00 NR -17.1410 130.135 main 0 0 ______P_______ -1 -17.1410 130.135 6 205
1938047S16131 1938 17 SI WA NOT_NAMED 1938-02-16 18:00:00 NR -17.3930 130.033 main 0 0 ______P_______ -1 -17.3930 130.033 5 196
1938047S16131 1938 17 SI WA NOT_NAMED 1938-02-16 21:00:00 NR -17.6495 129.979 main 0 0 ______P_______ -1 -17.6495 129.979 5 184
1938047S16131 1938 17 SI WA NOT_NAMED 1938-02-17 00:00:00 TS -17.9091 129.987 main 0 0 ______P__O____ -1 -17.9114 129.984 -17.9000 130.000 TC 35 998 5 175
1938047S16131 1938 17 SI WA NOT_NAMED 1938-02-17 01:00:00 TS -18.0000 130.022 998 bom main 0 0 ______O__P____ -1 -18.0000 130.000 998 -17.9999 130.067 TC 6 156
1938047S16131 1938 17 SI WA NOT_NAMED 1938-02-17 03:00:00 TS -18.1887 130.117 main 0 0 ______P__P____ -1 -18.1798 130.055 -18.2006 130.201 TC 7 151
1938047S16131 1938 17 SI WA NOT_NAMED 1938-02-17 06:00:00 TS -18.4840 130.297 main 0 0 ______P__P____ -1 -18.4598 130.189 -18.5083 130.405 TC 7 149
1938047S16131 1938 17 SI WA NOT_NAMED 1938-02-17 09:00:00 TS -18.7945 130.499 main 0 0 ______P__P____ -1 -18.7590 130.380 -18.8300 130.617 TC 8 148
1938047S16131 1938 17 SI WA NOT_NAMED 1938-02-17 12:00:00 TS -19.1291 130.729 main 0 0 ______P__P____ -1 -19.0852 130.618 -19.1729 130.839 TC 8 147
1938047S16131 1938 17 SI WA NOT_NAMED 1938-02-17 15:00:00 TS -19.4952 130.985 main 0 0 ______P__P____ -1 -19.4461 130.896 -19.5443 131.075 TC 9 147
1938047S16131 1938 17 SI WA NOT_NAMED 1938-02-17 18:00:00 TS -19.9003 131.266 main 0 0 ______P__P____ -1 -19.8494 131.204 -19.9512 131.328 TC 10 147
1938047S16131 1938 17 SI WA NOT_NAMED 1938-02-17 21:00:00 TS -20.3519 131.569 main 0 0 ______P__P____ -1 -20.3030 131.536 -20.4007 131.602 TC 11 149
1938047S16131 1938 17 SI WA NOT_NAMED 1938-02-18 00:00:00 TS -20.8575 131.891 main 0 0 ______P__O____ -1 -20.8150 131.882 -20.9000 131.900 TC 35 996 12 149
1938047S16131 1938 17 SI WA NOT_NAMED 1938-02-18 01:00:00 TS -21.0393 132.003 996 bom main 0 0 ______O__P____ -1 -21.0000 132.000 996 -21.0786 132.005 TC 13 151
1938047S16131 1938 17 SI WA NOT_NAMED 1938-02-18 03:00:00 TS -21.4151 132.221 main 0 0 ______P__P____ -1 -21.3758 132.217 -21.4544 132.225 TC 13 152
1938047S16131 1938 17 SI WA NOT_NAMED 1938-02-18 06:00:00 TS -22.0260 132.568 main 0 0 ______P__P____ -1 -21.9893 132.562 -22.0627 132.574 TC 14 153
1938047S16131 1938 17 SI WA NOT_NAMED 1938-02-18 09:00:00 TS -22.6903 132.933 main 0 0 ______P__P____ -1 -22.6584 132.925 -22.7221 132.942 TC 15 154
1938047S16131 1938 17 SI WA NOT_NAMED 1938-02-18 12:00:00 TS -23.4046 133.313 main 0 0 ______P__P____ -1 -23.3791 133.302 -23.4301 133.324 TC 16 154
1938047S16131 1938 17 SI WA NOT_NAMED 1938-02-18 15:00:00 TS -24.1656 133.703 main 0 0 ______P__P____ -1 -24.1471 133.690 -24.1841 133.715 TC 17 155
1938047S16131 1938 17 SI WA NOT_NAMED 1938-02-18 18:00:00 TS -24.9702 134.098 main 0 0 ______P__P____ -1 -24.9586 134.084 -24.9819 134.112 TC 18 157
1938047S16131 1938 17 SI WA NOT_NAMED 1938-02-18 21:00:00 TS -25.8154 134.494 main 0 0 ______P__P____ -1 -25.8097 134.479 -25.8211 134.508 TC 19 158
1938047S16131 1938 17 SI WA NOT_NAMED 1938-02-19 00:00:00 TS -26.6984 134.885 main 0 0 ______P__O____ -1 -26.6969 134.871 -26.7000 134.900 TC 50 986 19 159
1938047S16131 1938 17 SP EA NOT_NAMED 1938-02-19 01:00:00 TS -27.0007 135.014 986 bom main 0 0 ______O__P____ -1 -27.0000 135.000 986 4 -27.0014 135.029 TC 20 160
1938047S16131 1938 17 SP EA NOT_NAMED 1938-02-19 03:00:00 TS -27.6165 135.269 main 0 0 ______P__P____ -1 -27.6167 135.256 -27.6163 135.283 TC 20 160
1938047S16131 1938 17 SP EA NOT_NAMED 1938-02-19 06:00:00 TS -28.5659 135.646 main 0 0 ______P__P____ -1 -28.5657 135.633 -28.5661 135.659 TC 20 161
1938047S16131 1938 17 SP EA NOT_NAMED 1938-02-19 09:00:00 TS -29.5427 136.018 main 0 0 ______P__P____ -1 -29.5404 136.005 -29.5451 136.031 TC 21 162
1938047S16131 1938 17 SP EA NOT_NAMED 1938-02-19 12:00:00 TS -30.5426 136.387 main 0 0 ______P__P____ -1 -30.5368 136.375 -30.5483 136.400 TC 21 163
1938047S16131 1938 17 SP EA NOT_NAMED 1938-02-19 15:00:00 TS -31.5609 136.756 main 0 0 ______P__P____ -1 -31.5509 136.744 -31.5708 136.769 TC 22 163
1938047S16131 1938 17 SP EA NOT_NAMED 1938-02-19 18:00:00 TS -32.5907 137.126 main 0 0 ______P__P____ -1 -32.5782 137.115 -32.6073 137.141 TC 22 163
1938047S16131 1938 17 SP EA NOT_NAMED 1938-02-19 21:00:00 TS -33.6294 137.501 main 21 0 ______P__P____ -1 -33.6140 137.490 -33.6523 137.517 TC 22 163
1938047S16131 1938 17 SP EA NOT_NAMED 1938-02-20 00:00:00 TS -34.6690 137.881 main 0 0 ______P__O____ -1 -34.6536 137.871 -34.7000 137.900 TC 40 994 22 163
1938047S16131 1938 17 SP EA NOT_NAMED 1938-02-20 01:00:00 NR -35.0000 138.000 994 bom main 21 ______O_______ -1 -35.0000 138.000 994 TC 21 164

About IBTrACS Database

This database is a web-friendly format of International Best Track Archive for Climate Stewardship (IBTrACS), a global best track data archive curated by NOAA dating back to 1842.

Updated: 2021-10-27